Time;durP1;ratioP1;P1;durP2;ratioP2;P2;SDS_P1;SDS_P2;PMS_P1;PMS_P2;Temp;Humidity;BMP_temperature;BMP_pressure;BME280_temperature;BME280_humidity;BME280_pressure;Samples;Min_cycle;Max_cycle;Signal;HPM_P1;HPM_P2
2023/03/27 00:00:41;;;;;;;0.82;0.82;;;;;;;5.02;64.91;100749.19;5149448;28;20444;-92
2023/03/27 00:03:13;;;;;;;0.40;0.40;;;;;;;4.55;65.70;100749.31;5163118;28;20091;-92
2023/03/27 00:05:44;;;;;;;0.60;0.60;;;;;;;4.63;65.94;100754.50;5166398;28;20065;-91
2023/03/27 00:08:15;;;;;;;0.30;0.30;;;;;;;4.76;65.19;100759.66;5150740;28;20022;-91
2023/03/27 00:10:47;;;;;;;0.30;0.30;;;;;;;4.94;65.20;100766.56;5166708;28;20053;-92
2023/03/27 00:13:18;;;;;;;0.30;0.30;;;;;;;4.80;65.34;100777.00;5168345;28;20030;-92
2023/03/27 00:15:49;;;;;;;0.40;0.40;;;;;;;4.70;65.84;100774.41;5173048;28;20030;-92
2023/03/27 00:18:20;;;;;;;0.50;0.50;;;;;;;4.63;65.81;100784.84;5199472;28;20022;-92
2023/03/27 00:20:51;;;;;;;0.30;0.30;;;;;;;4.70;65.28;100792.59;5169825;28;20060;-93
2023/03/27 00:23:21;;;;;;;0.43;0.43;;;;;;;4.51;66.30;100783.97;5183029;28;20042;-91
2023/03/27 00:25:53;;;;;;;0.35;0.35;;;;;;;4.66;66.37;100780.50;5164250;28;20038;-92
2023/03/27 00:28:26;;;;;;;0.52;0.52;;;;;;;4.43;66.10;100787.44;5166857;28;20399;-92
2023/03/27 00:30:57;;;;;;;1.67;1.43;;;;;;;4.28;66.89;100789.19;5182018;28;20052;-93
2023/03/27 00:33:27;;;;;;;0.30;0.30;;;;;;;4.32;67.34;100796.13;5176692;28;20529;-92
2023/03/27 00:35:57;;;;;;;0.30;0.30;;;;;;;4.07;67.95;100806.50;5183700;28;20065;-91
2023/03/27 00:38:28;;;;;;;0.30;0.30;;;;;;;4.14;67.98;100807.34;5167320;28;20020;-92
2023/03/27 00:40:59;;;;;;;0.40;0.40;;;;;;;4.26;67.70;100816.88;5161128;28;20041;-91
2023/03/27 00:43:35;;;;;;;0.82;0.82;;;;;;;4.14;67.76;100822.94;5164155;28;20114;-91
2023/03/27 00:46:14;;;;;;;4.43;1.60;;;;;;;4.26;67.73;100827.25;5164441;28;20033;-91
2023/03/27 00:48:50;;;;;;;0.30;0.30;;;;;;;4.41;67.36;100827.31;5184082;28;20637;-91
2023/03/27 00:51:24;;;;;;;0.30;0.30;;;;;;;4.05;68.17;100828.13;5162774;28;20034;-92
2023/03/27 00:53:56;;;;;;;0.40;0.40;;;;;;;4.21;68.52;100827.28;5162536;28;20084;-91
2023/03/27 00:56:26;;;;;;;0.30;0.30;;;;;;;4.30;67.44;100825.56;5189575;28;20045;-91
2023/03/27 00:59:01;;;;;;;0.30;0.30;;;;;;;4.08;68.17;100830.72;5171047;28;20025;-91
2023/03/27 01:01:31;;;;;;;0.30;0.30;;;;;;;4.17;68.28;100838.53;5147651;28;20026;-92
2023/03/27 01:04:06;;;;;;;0.30;0.30;;;;;;;4.18;67.87;100831.59;5147499;28;20022;-91
2023/03/27 01:06:38;;;;;;;0.73;0.73;;;;;;;3.75;69.57;100834.97;5158933;28;20102;-91
2023/03/27 01:09:09;;;;;;;1.75;0.82;;;;;;;4.03;68.85;100846.28;5185503;28;20025;-92
2023/03/27 01:11:54;;;;;;;0.40;0.40;;;;;;;3.97;69.00;100854.06;5165567;28;20137;-92
2023/03/27 01:14:51;;;;;;;0.30;0.30;;;;;;;3.96;68.29;100865.31;5162113;28;20042;-92
2023/03/27 01:17:31;;;;;;;0.30;0.30;;;;;;;4.00;68.86;100872.25;5167261;28;20030;-92
2023/03/27 01:20:08;;;;;;;0.50;0.50;;;;;;;3.85;69.66;100873.09;5165522;28;20040;-92
2023/03/27 01:23:11;;;;;;;0.30;0.30;;;;;;;4.17;68.43;100868.84;5171562;28;20018;-92
2023/03/27 01:25:54;;;;;;;0.75;0.75;;;;;;;3.89;69.54;100873.97;5147744;28;20037;-92
2023/03/27 01:28:39;;;;;;;1.23;1.23;;;;;;;3.83;68.71;100884.31;5173442;28;20113;-92
2023/03/27 01:31:39;;;;;;;0.40;0.40;;;;;;;3.70;69.74;100879.06;5187167;28;20043;-92
2023/03/27 01:34:35;;;;;;;0.30;0.30;;;;;;;3.41;70.80;100881.53;5170883;28;20100;-92
2023/03/27 01:37:20;;;;;;;0.40;0.40;;;;;;;3.60;69.56;100874.69;5153050;28;20030;-92
2023/03/27 01:40:03;;;;;;;0.73;0.73;;;;;;;3.63;69.51;100887.69;5161564;28;20068;-92
2023/03/27 01:42:49;;;;;;;0.50;0.50;;;;;;;3.63;69.49;100887.69;5165574;28;20037;-93
2023/03/27 01:45:23;;;;;;;1.00;0.95;;;;;;;3.68;69.95;100890.31;5155787;28;20038;-92
2023/03/27 01:48:19;;;;;;;0.40;0.40;;;;;;;3.27;70.33;100899.63;5165647;28;20041;-93
2023/03/27 01:50:55;;;;;;;0.50;0.50;;;;;;;3.19;70.56;100907.38;5147603;28;20034;-93
2023/03/27 01:53:33;;;;;;;0.30;0.30;;;;;;;3.38;70.88;100908.34;5176747;28;20057;-93
2023/03/27 01:56:09;;;;;;;0.30;0.30;;;;;;;3.33;69.99;100910.06;5168855;28;20042;-93
2023/03/27 01:58:48;;;;;;;0.30;0.30;;;;;;;3.54;70.25;100908.41;5164301;28;20030;-93
2023/03/27 02:01:24;;;;;;;1.80;0.82;;;;;;;3.42;70.31;100910.09;5161303;28;20046;-94
2023/03/27 02:03:58;;;;;;;0.40;0.40;;;;;;;3.64;69.75;100910.19;5193029;28;20029;-92
2023/03/27 02:06:32;;;;;;;0.30;0.30;;;;;;;3.40;70.10;100924.78;5164301;28;20125;-93
2023/03/27 02:09:21;;;;;;;0.47;0.47;;;;;;;3.40;70.83;100929.09;5201565;28;20076;-93
2023/03/27 02:11:57;;;;;;;0.52;0.52;;;;;;;3.80;68.68;100931.03;5173830;28;20026;-93
2023/03/27 02:14:34;;;;;;;5.68;1.05;;;;;;;3.55;69.18;100936.97;5151018;28;20049;-92
2023/03/27 02:17:09;;;;;;;0.68;0.68;;;;;;;3.64;69.55;100935.28;5149057;28;20030;-93
2023/03/27 02:19:46;;;;;;;0.50;0.50;;;;;;;3.45;69.75;100941.22;5161578;28;20041;-93
2023/03/27 02:22:17;;;;;;;0.50;0.50;;;;;;;3.52;69.23;100936.06;5163130;28;20026;-93
2023/03/27 02:24:47;;;;;;;0.68;0.68;;;;;;;3.49;69.88;100936.06;5163184;28;20474;-93
2023/03/27 02:27:38;;;;;;;0.30;0.30;;;;;;;3.68;68.72;100943.06;5183535;28;20065;-93
2023/03/27 02:30:19;;;;;;;1.10;1.10;;;;;;;3.55;69.33;100949.06;5144983;28;20129;-93
2023/03/27 02:32:59;;;;;;;0.47;0.47;;;;;;;3.34;69.97;100967.97;5180903;28;20057;-92
2023/03/27 02:35:44;;;;;;;0.47;0.47;;;;;;;3.37;70.35;100965.41;5146212;28;20042;-93
2023/03/27 02:38:24;;;;;;;0.40;0.40;;;;;;;3.40;70.01;100971.47;5163350;28;20032;-92
2023/03/27 02:41:07;;;;;;;0.38;0.38;;;;;;;3.31;71.27;100972.25;5161900;28;20498;-91
2023/03/27 02:43:56;;;;;;;0.40;0.40;;;;;;;3.00;71.70;100981.56;5168639;28;20578;-94
2023/03/27 02:46:39;;;;;;;0.30;0.30;;;;;;;3.27;70.92;100978.31;5167170;28;20058;-92
2023/03/27 02:49:17;;;;;;;0.40;0.40;;;;;;;3.20;71.01;100978.22;5150080;28;20497;-93
2023/03/27 02:51:54;;;;;;;0.88;0.85;;;;;;;2.98;71.57;100980.66;5164518;28;20273;-91
2023/03/27 02:54:31;;;;;;;0.40;0.40;;;;;;;2.94;71.84;100978.88;5178466;28;20070;-93
2023/03/27 02:57:09;;;;;;;0.50;0.50;;;;;;;3.36;69.86;100981.81;5165184;28;20022;-92
2023/03/27 02:59:50;;;;;;;0.55;0.55;;;;;;;3.26;70.82;100986.09;5164499;28;20042;-93
2023/03/27 03:02:26;;;;;;;0.40;0.40;;;;;;;3.51;69.69;100994.88;5156230;28;20084;-93
2023/03/27 03:05:16;;;;;;;0.38;0.38;;;;;;;2.83;71.97;100991.75;5164689;28;20682;-93
2023/03/27 03:07:47;;;;;;;0.40;0.40;;;;;;;3.12;70.82;101002.38;5162761;28;20022;-93
2023/03/27 03:10:18;;;;;;;0.30;0.30;;;;;;;2.97;71.23;101005.75;5161807;28;20069;-93
2023/03/27 03:12:48;;;;;;;0.70;0.70;;;;;;;3.06;71.17;101009.25;5161943;28;20037;-93
2023/03/27 03:15:19;;;;;;;0.30;0.30;;;;;;;3.02;71.40;101010.06;5163545;28;20049;-93
2023/03/27 03:17:49;;;;;;;0.30;0.30;;;;;;;2.97;71.04;101018.69;5149988;28;20321;-93
2023/03/27 03:20:20;;;;;;;0.38;0.38;;;;;;;3.05;71.23;101015.31;5148708;28;20416;-93
2023/03/27 03:22:51;;;;;;;0.40;0.40;;;;;;;3.01;71.84;101019.59;5152030;28;20174;-93
2023/03/27 03:25:24;;;;;;;0.30;0.30;;;;;;;2.94;71.36;101028.13;5157775;28;20046;-92
2023/03/27 03:27:57;;;;;;;0.40;0.40;;;;;;;2.94;72.04;101030.72;5162480;28;20029;-93
2023/03/27 03:30:29;;;;;;;0.87;0.87;;;;;;;3.27;69.94;101034.47;5166325;28;20041;-94
2023/03/27 03:32:59;;;;;;;0.40;0.40;;;;;;;3.26;70.67;101030.16;5151784;28;20666;-93
2023/03/27 03:35:29;;;;;;;0.40;0.40;;;;;;;3.40;70.26;101036.31;5149793;28;20053;-91
2023/03/27 03:38:00;;;;;;;0.40;0.40;;;;;;;3.21;70.04;101050.88;5152234;28;20032;-93
2023/03/27 03:40:30;;;;;;;0.40;0.40;;;;;;;3.22;70.72;101049.13;5177614;28;20034;-93
2023/03/27 03:43:01;;;;;;;0.65;0.60;;;;;;;3.13;70.40;101061.16;5154098;28;20033;-93
2023/03/27 03:45:31;;;;;;;0.30;0.30;;;;;;;3.24;70.14;101057.81;5165218;28;20040;-93
2023/03/27 03:48:02;;;;;;;0.30;0.30;;;;;;;2.98;71.50;101066.22;5186391;28;20026;-93
2023/03/27 03:50:32;;;;;;;16.00;2.80;;;;;;;2.71;72.69;101075.44;5149553;28;20042;-93
2023/03/27 03:53:03;;;;;;;0.82;0.82;;;;;;;2.69;72.68;101069.34;5161338;28;20029;-93
2023/03/27 03:55:33;;;;;;;0.65;0.65;;;;;;;2.81;72.30;101072.09;5156564;28;20038;-93
2023/03/27 03:58:04;;;;;;;0.30;0.30;;;;;;;2.95;71.56;101076.53;5157674;28;20021;-93
2023/03/27 04:00:39;;;;;;;0.30;0.30;;;;;;;3.08;71.11;101073.22;5159169;28;20010;-92
2023/03/27 04:03:09;;;;;;;0.30;0.30;;;;;;;2.91;71.88;101077.38;5160677;28;20014;-92
2023/03/27 04:05:41;;;;;;;0.40;0.40;;;;;;;2.99;71.13;101076.59;5184535;28;20038;-92
2023/03/27 04:08:11;;;;;;;0.40;0.40;;;;;;;3.02;71.52;101086.13;5165342;28;20041;-93
2023/03/27 04:10:42;;;;;;;0.50;0.50;;;;;;;2.87;72.56;101083.38;5151661;28;20038;-92
2023/03/27 04:13:12;;;;;;;0.30;0.30;;;;;;;2.70;73.45;101088.38;5152472;28;20097;-93
2023/03/27 04:15:43;;;;;;;0.40;0.40;;;;;;;2.48;73.75;101098.50;5147857;28;20133;-87
2023/03/27 04:18:15;;;;;;;0.38;0.38;;;;;;;2.44;74.53;101100.16;5141729;28;20490;-87
2023/03/27 04:20:48;;;;;;;1.65;1.55;;;;;;;2.66;73.42;101105.63;5143884;28;20037;-88
2023/03/27 04:23:19;;;;;;;3.00;1.55;;;;;;;2.64;73.22;101109.91;5170077;28;20030;-88
2023/03/27 04:25:49;;;;;;;2.83;2.25;;;;;;;2.75;73.10;101107.44;5144911;28;20095;-87
2023/03/27 04:28:20;;;;;;;0.65;0.65;;;;;;;3.01;71.94;101105.16;5145455;28;20058;-88
2023/03/27 04:30:50;;;;;;;1.05;1.05;;;;;;;3.07;71.93;101115.56;5138100;28;20029;-87
2023/03/27 04:33:21;;;;;;;0.60;0.45;;;;;;;2.80;73.24;101127.38;5139663;28;20068;-86
2023/03/27 04:35:52;;;;;;;1.30;1.20;;;;;;;2.94;72.82;101127.53;5157667;28;20034;-86
2023/03/27 04:38:25;;;;;;;1.83;1.73;;;;;;;3.17;71.80;101126.88;5139671;28;20752;-88
2023/03/27 04:40:55;;;;;;;1.60;1.50;;;;;;;2.98;72.87;101131.03;5157063;28;20056;-87
2023/03/27 04:43:26;;;;;;;1.42;1.38;;;;;;;3.08;72.98;101138.06;5142635;28;20277;-88
2023/03/27 04:45:56;;;;;;;1.73;1.63;;;;;;;3.22;72.24;101132.13;5177359;28;20081;-87
2023/03/27 04:48:28;;;;;;;0.40;0.40;;;;;;;3.23;72.35;101142.50;5157568;28;20133;-87
2023/03/27 04:50:59;;;;;;;1.05;1.05;;;;;;;3.01;73.57;101146.63;5159125;28;20037;-85
2023/03/27 04:53:30;;;;;;;2.63;2.10;;;;;;;2.70;75.04;101142.78;5154117;28;20729;-84
2023/03/27 04:56:01;;;;;;;0.30;0.30;;;;;;;2.87;74.38;101148.16;5159401;28;20069;-85
2023/03/27 04:58:32;;;;;;;1.45;1.35;;;;;;;2.78;74.94;101142.03;5169560;28;20076;-88
2023/03/27 05:01:04;;;;;;;0.50;0.50;;;;;;;2.90;74.70;101145.63;5143938;28;20040;-87
2023/03/27 05:03:34;;;;;;;5.35;3.33;;;;;;;2.57;76.89;101146.94;5154662;28;20045;-86
2023/03/27 05:06:07;;;;;;;0.38;0.38;;;;;;;2.70;76.03;101153.16;5155880;28;20046;-86
2023/03/27 05:08:37;;;;;;;0.98;0.95;;;;;;;2.64;76.87;101151.34;5157490;28;20033;-86
2023/03/27 05:11:08;;;;;;;0.45;0.45;;;;;;;2.62;76.92;101163.41;5141643;28;20518;-86
2023/03/27 05:13:38;;;;;;;0.30;0.30;;;;;;;2.60;77.03;101165.13;5143992;28;20541;-86
2023/03/27 05:16:09;;;;;;;2.38;1.30;;;;;;;2.68;77.19;101174.72;5140193;28;20120;-86
2023/03/27 05:18:40;;;;;;;0.40;0.40;;;;;;;2.83;76.15;101174.06;5161882;28;20023;-87
2023/03/27 05:21:12;;;;;;;0.30;0.30;;;;;;;2.65;77.19;101185.03;5140194;28;20045;-87
2023/03/27 05:23:42;;;;;;;0.30;0.30;;;;;;;2.81;76.27;101186.13;5177787;28;20028;-86
2023/03/27 05:26:13;;;;;;;32.35;1.58;;;;;;;2.64;77.53;101187.63;5189689;28;20042;-87
2023/03/27 05:28:43;;;;;;;0.20;0.20;;;;;;;2.59;78.10;101197.94;5145503;28;20025;-87
2023/03/27 05:31:14;;;;;;;0.57;0.57;;;;;;;2.76;77.44;101198.16;5137945;28;20031;-86
2023/03/27 05:33:44;;;;;;;0.40;0.40;;;;;;;2.79;77.03;101202.50;5158485;28;20575;-87
2023/03/27 05:36:15;;;;;;;0.30;0.30;;;;;;;2.83;76.33;101209.47;5141450;28;20444;-87
2023/03/27 05:38:45;;;;;;;0.80;0.80;;;;;;;2.94;76.10;101207.00;5156655;28;20440;-86
2023/03/27 05:41:17;;;;;;;1.38;0.88;;;;;;;2.96;75.80;101211.38;5139941;28;20042;-87
2023/03/27 05:43:49;;;;;;;0.93;0.93;;;;;;;3.08;75.41;101221.03;5139435;28;20030;-86
2023/03/27 05:46:19;;;;;;;1.92;1.00;;;;;;;3.08;75.64;101218.44;5156645;28;20041;-86
2023/03/27 05:48:50;;;;;;;1.95;1.50;;;;;;;3.19;75.23;101212.47;5154008;28;20026;-87
2023/03/27 05:51:20;;;;;;;0.30;0.30;;;;;;;2.64;77.88;101222.19;5149976;28;20069;-87
2023/03/27 05:53:51;;;;;;;0.30;0.30;;;;;;;2.85;76.84;101223.31;5159977;28;20018;-86
2023/03/27 05:56:21;;;;;;;1.02;1.02;;;;;;;2.74;77.72;101233.56;5142252;28;20041;-86
2023/03/27 05:58:52;;;;;;;3.80;2.42;;;;;;;3.02;76.10;101233.88;5157483;28;20611;-85
2023/03/27 06:01:22;;;;;;;0.30;0.30;;;;;;;2.89;76.88;101232.00;5157022;28;20101;-86
2023/03/27 06:03:54;;;;;;;1.77;1.65;;;;;;;2.86;78.06;101239.72;5151936;28;20110;-86
2023/03/27 06:06:25;;;;;;;0.30;0.30;;;;;;;2.96;76.73;101241.59;5159236;28;20459;-87
2023/03/27 06:08:57;;;;;;;0.40;0.40;;;;;;;2.94;77.29;101248.47;5178329;28;20120;-87
2023/03/27 06:11:28;;;;;;;0.40;0.40;;;;;;;3.03;77.23;101253.78;5168152;28;20037;-87
2023/03/27 06:13:58;;;;;;;0.50;0.50;;;;;;;3.10;77.04;101263.38;5158153;28;20058;-86
2023/03/27 06:16:29;;;;;;;0.40;0.40;;;;;;;3.17;76.87;101253.09;5142489;28;20045;-86
2023/03/27 06:19:00;;;;;;;0.30;0.30;;;;;;;2.95;78.29;101269.25;5141827;28;20049;-87
2023/03/27 06:21:30;;;;;;;0.30;0.30;;;;;;;3.02;77.53;101262.41;5142074;28;20042;-87
2023/03/27 06:24:00;;;;;;;0.43;0.43;;;;;;;3.13;77.23;101276.38;5161386;28;20022;-87
2023/03/27 06:26:31;;;;;;;0.50;0.50;;;;;;;3.14;77.68;101282.47;5155319;28;20263;-87
2023/03/27 06:29:03;;;;;;;0.30;0.30;;;;;;;3.05;78.58;101283.19;5142153;28;20470;-86
2023/03/27 06:31:37;;;;;;;0.30;0.30;;;;;;;3.09;78.52;101290.19;5154080;28;20069;-86
2023/03/27 06:34:08;;;;;;;;;;;;;;;3.15;78.76;101290.25;5161892;28;20096;-87
2023/03/27 06:36:39;;;;;;;0.30;0.30;;;;;;;3.28;78.69;101295.56;5174839;28;20192;-87
2023/03/27 06:39:10;;;;;;;0.52;0.52;;;;;;;3.25;79.51;101300.75;5162580;28;20024;-86
2023/03/27 06:41:41;;;;;;;0.50;0.50;;;;;;;3.30;79.31;101291.28;5159489;28;20045;-87
2023/03/27 06:44:11;;;;;;;0.40;0.40;;;;;;;3.51;78.38;101298.44;5144163;28;20022;-87
2023/03/27 06:46:42;;;;;;;0.30;0.30;;;;;;;3.41;79.43;101304.38;5178516;28;20104;-87
2023/03/27 06:49:13;;;;;;;0.60;0.60;;;;;;;3.43;78.94;101306.13;5174079;28;20034;-87
2023/03/27 06:51:44;;;;;;;0.60;0.60;;;;;;;3.58;78.42;101305.44;5153067;28;20125;-87
2023/03/27 06:54:15;;;;;;;0.32;0.32;;;;;;;3.59;77.98;101307.19;5157663;28;20112;-87
2023/03/27 06:56:45;;;;;;;0.75;0.75;;;;;;;3.59;77.40;101306.34;5156212;28;20030;-86
2023/03/27 06:59:16;;;;;;;0.30;0.30;;;;;;;3.76;76.65;101311.69;5191349;28;20037;-86
2023/03/27 07:01:46;;;;;;;0.43;0.43;;;;;;;3.65;76.86;101315.88;5204585;28;20547;-86
2023/03/27 07:04:17;;;;;;;0.30;0.30;;;;;;;3.65;77.23;101321.97;5145817;28;20124;-86
2023/03/27 07:06:49;;;;;;;0.40;0.40;;;;;;;3.74;76.96;101311.69;5150460;28;20505;-87
2023/03/27 07:09:19;;;;;;;0.40;0.40;;;;;;;3.91;76.32;101316.19;5152562;28;20119;-87
2023/03/27 07:11:50;;;;;;;0.32;0.32;;;;;;;3.62;76.26;101327.09;5180980;28;20018;-87
2023/03/27 07:14:20;;;;;;;0.25;0.25;;;;;;;3.68;75.80;101329.78;5145994;28;20041;-87
2023/03/27 07:16:51;;;;;;;0.32;0.32;;;;;;;3.71;76.21;101335.00;5176532;28;20052;-86
2023/03/27 07:19:21;;;;;;;0.40;0.40;;;;;;;3.75;75.76;101334.19;5157015;28;20060;-86
2023/03/27 07:21:52;;;;;;;0.77;0.77;;;;;;;3.87;75.44;101340.34;5145908;28;20029;-87
2023/03/27 07:24:22;;;;;;;0.40;0.40;;;;;;;3.90;74.93;101343.84;5155153;28;20041;-86
2023/03/27 07:26:53;;;;;;;0.57;0.57;;;;;;;3.93;75.40;101349.09;5180511;28;20018;-87
2023/03/27 07:29:23;;;;;;;0.35;0.35;;;;;;;4.02;75.29;101347.44;5141018;28;20027;-87
2023/03/27 07:31:54;;;;;;;0.30;0.30;;;;;;;3.91;74.77;101355.13;5177994;28;20029;-86
2023/03/27 07:34:24;;;;;;;0.30;0.30;;;;;;;4.00;74.38;101363.03;5141861;28;20034;-87
2023/03/27 07:36:58;;;;;;;0.40;0.40;;;;;;;4.04;73.89;101364.78;5156078;28;20030;-87
2023/03/27 07:39:28;;;;;;;0.40;0.40;;;;;;;3.87;73.62;101368.91;5153289;28;21296;-87
2023/03/27 07:41:58;;;;;;;0.50;0.50;;;;;;;3.94;73.86;101369.00;5150860;28;20069;-86
2023/03/27 07:44:29;;;;;;;0.47;0.47;;;;;;;4.07;74.08;101376.91;5156256;28;20102;-87
2023/03/27 07:47:00;;;;;;;0.30;0.30;;;;;;;4.16;73.66;101376.16;5179289;28;20045;-86
2023/03/27 07:49:30;;;;;;;0.30;0.30;;;;;;;4.14;73.30;101383.91;5170606;28;20039;-87
2023/03/27 07:52:01;;;;;;;0.30;0.30;;;;;;;4.00;71.98;101386.38;5166730;28;20085;-85
2023/03/27 07:54:31;;;;;;;0.30;0.30;;;;;;;4.12;72.44;101377.84;5170799;28;20073;-86
2023/03/27 07:57:02;;;;;;;0.40;0.40;;;;;;;4.17;73.52;101383.09;5194320;28;20034;-86
2023/03/27 07:59:32;;;;;;;0.85;0.85;;;;;;;4.18;72.31;101392.59;5171962;28;20042;-86
2023/03/27 08:02:04;;;;;;;8.38;2.17;;;;;;;4.33;72.62;101387.59;5152297;28;20526;-87
2023/03/27 08:04:35;;;;;;;1.00;0.88;;;;;;;4.35;72.65;101387.59;5144064;28;20501;-86
2023/03/27 08:07:06;;;;;;;0.40;0.40;;;;;;;4.32;72.45;101384.94;5150296;28;20030;-87
2023/03/27 08:09:36;;;;;;;0.30;0.30;;;;;;;4.46;71.34;101398.97;5185257;28;20026;-86
2023/03/27 08:12:06;;;;;;;0.50;0.50;;;;;;;4.38;70.48;101393.69;5178070;28;20099;-86
2023/03/27 08:14:37;;;;;;;0.40;0.40;;;;;;;4.48;71.10;101394.63;5159438;28;20086;-86
2023/03/27 08:17:08;;;;;;;0.30;0.30;;;;;;;4.61;71.31;101389.56;5154698;28;20757;-86
2023/03/27 08:19:38;;;;;;;0.30;0.30;;;;;;;4.60;70.86;101395.59;5176188;28;20037;-86
2023/03/27 08:22:08;;;;;;;0.30;0.30;;;;;;;4.63;71.01;101401.69;5142102;28;20180;-85
2023/03/27 08:24:39;;;;;;;1.75;0.98;;;;;;;4.55;68.89;101408.56;5162765;28;20077;-87
2023/03/27 08:27:09;;;;;;;0.30;0.30;;;;;;;4.50;68.53;101412.84;5149455;28;20084;-87
2023/03/27 08:29:42;;;;;;;0.77;0.77;;;;;;;4.66;68.57;101403.44;5164613;28;20046;-88
2023/03/27 08:32:12;;;;;;;0.30;0.30;;;;;;;4.68;68.78;101410.41;5177556;28;20128;-87
2023/03/27 08:34:43;;;;;;;0.20;0.20;;;;;;;4.58;69.02;101419.00;5160319;28;20478;-86
2023/03/27 08:37:13;;;;;;;0.60;0.60;;;;;;;4.51;69.22;101420.66;5163224;28;20121;-87
2023/03/27 08:39:45;;;;;;;0.30;0.30;;;;;;;4.60;68.37;101425.06;5172351;28;20046;-87
2023/03/27 08:42:28;;;;;;;0.30;0.30;;;;;;;4.79;67.94;101425.22;5158346;28;20813;-87
2023/03/27 08:45:07;;;;;;;1.90;0.93;;;;;;;4.68;68.25;101432.94;5147290;28;20162;-87
2023/03/27 08:47:46;;;;;;;0.50;0.50;;;;;;;4.65;67.02;101438.09;5157892;28;20065;-87
2023/03/27 08:50:48;;;;;;;0.30;0.30;;;;;;;4.69;66.65;101445.94;5161836;28;20383;-87
2023/03/27 08:53:31;;;;;;;0.30;0.30;;;;;;;4.70;65.07;101449.41;5142725;28;20034;-88
2023/03/27 08:56:02;;;;;;;3.33;2.25;;;;;;;4.84;64.77;101449.50;5151938;28;20488;-87
2023/03/27 08:58:33;;;;;;;0.50;0.50;;;;;;;4.87;64.07;101449.56;5162087;28;20034;-86
2023/03/27 09:01:12;;;;;;;0.40;0.40;;;;;;;4.97;63.99;101450.50;5169654;28;20049;-88
2023/03/27 09:03:57;;;;;;;0.25;0.25;;;;;;;4.92;64.54;101458.25;5138930;28;20030;-88
2023/03/27 09:06:37;;;;;;;0.68;0.68;;;;;;;5.04;65.27;101467.91;5150948;28;20038;-88
2023/03/27 09:09:16;;;;;;;2.75;1.38;;;;;;;5.04;63.55;101462.72;5177632;28;20108;-89
2023/03/27 09:12:15;;;;;;;0.30;0.30;;;;;;;5.10;62.46;101467.94;5174765;28;20030;-87
2023/03/27 09:14:52;;;;;;;0.30;0.30;;;;;;;5.10;62.75;101474.88;5177487;28;20077;-88
2023/03/27 09:17:31;;;;;;;0.30;0.30;;;;;;;5.07;62.76;101477.47;5182811;28;20386;-87
2023/03/27 09:20:17;;;;;;;0.50;0.50;;;;;;;5.16;63.00;101467.13;5156327;28;20096;-88
2023/03/27 09:23:12;;;;;;;0.30;0.30;;;;;;;5.18;62.29;101470.59;5176442;28;20018;-88
2023/03/27 09:25:48;;;;;;;0.30;0.30;;;;;;;5.18;62.12;101471.47;5157561;28;20042;-88
2023/03/27 09:28:22;;;;;;;0.30;0.30;;;;;;;5.19;62.41;101474.94;5153053;28;20034;-87
2023/03/27 09:30:53;;;;;;;0.30;0.30;;;;;;;5.26;61.94;101468.91;5173661;28;20046;-88
2023/03/27 09:33:24;;;;;;;0.40;0.40;;;;;;;5.40;61.73;101473.38;5171859;28;20041;-89
2023/03/27 09:35:56;;;;;;;0.30;0.30;;;;;;;5.48;59.81;101474.28;5154189;28;20037;-88
2023/03/27 09:38:34;;;;;;;1.42;1.40;;;;;;;5.44;59.03;101472.50;5145168;28;20561;-88
2023/03/27 09:41:13;;;;;;;0.38;0.38;;;;;;;5.48;60.35;101466.47;5160277;28;20265;-88
2023/03/27 09:43:46;;;;;;;0.30;0.30;;;;;;;5.50;60.38;101464.72;5195030;28;20591;-89
2023/03/27 09:46:22;;;;;;;0.40;0.40;;;;;;;5.58;58.66;101470.84;5158190;28;20033;-88
2023/03/27 09:49:01;;;;;;;0.30;0.30;;;;;;;5.66;60.14;101463.94;5177991;28;20022;-88
2023/03/27 09:51:41;;;;;;;0.30;0.30;;;;;;;5.66;57.79;101469.16;5149166;28;20042;-87
2023/03/27 09:54:14;;;;;;;0.30;0.30;;;;;;;5.62;58.26;101477.81;5158002;28;20026;-87
2023/03/27 09:56:49;;;;;;;0.30;0.30;;;;;;;5.64;59.00;101481.31;5148125;28;20030;-89
2023/03/27 09:59:28;;;;;;;0.40;0.40;;;;;;;5.70;59.37;101485.69;5157510;28;20026;-88
2023/03/27 10:02:08;;;;;;;0.20;0.20;;;;;;;5.73;58.36;101490.91;5159711;28;20033;-88
2023/03/27 10:04:39;;;;;;;0.60;0.60;;;;;;;5.83;59.05;101484.00;5192663;28;20565;-86
2023/03/27 10:07:23;;;;;;;0.30;0.30;;;;;;;5.88;59.01;101489.22;5161175;28;20030;-88
2023/03/27 10:10:10;;;;;;;0.30;0.30;;;;;;;5.84;58.09;101488.34;5179158;28;20033;-88
2023/03/27 10:12:41;;;;;;;1.23;1.02;;;;;;;5.91;58.98;101495.31;5187449;28;20025;-88
2023/03/27 10:15:32;;;;;;;1.20;1.10;;;;;;;5.89;56.73;101494.47;5173014;28;20093;-87
2023/03/27 10:18:07;;;;;;;0.30;0.30;;;;;;;5.99;58.47;101498.00;5143832;28;20026;-88
2023/03/27 10:20:48;;;;;;;0.30;0.30;;;;;;;5.92;57.67;101485.78;5143482;28;20057;-87
2023/03/27 10:23:24;;;;;;;0.40;0.40;;;;;;;6.02;57.73;101494.53;5160215;28;20026;-89
2023/03/27 10:26:00;;;;;;;0.30;0.30;;;;;;;5.91;57.71;101484.91;5158888;28;20109;-89
2023/03/27 10:28:35;;;;;;;0.30;0.30;;;;;;;5.87;57.51;101493.59;5155335;28;20045;-88
2023/03/27 10:31:22;;;;;;;0.47;0.47;;;;;;;6.09;57.70;101493.69;5178530;28;20042;-87
2023/03/27 10:33:53;;;;;;;1.00;0.70;;;;;;;6.14;56.29;101494.59;5173561;28;20097;-88
2023/03/27 10:36:24;;;;;;;0.30;0.30;;;;;;;6.16;56.93;101492.84;5169383;28;20082;-88
2023/03/27 10:39:02;;;;;;;1.00;1.00;;;;;;;6.17;56.42;101491.13;5162645;28;20465;-87
2023/03/27 10:41:35;;;;;;;0.30;0.30;;;;;;;6.10;56.78;101495.44;5158483;28;20617;-88
2023/03/27 10:44:16;;;;;;;0.30;0.30;;;;;;;6.14;55.93;101498.06;5156471;28;20029;-87
2023/03/27 10:46:47;;;;;;;0.30;0.30;;;;;;;6.19;56.00;101500.69;5162496;28;20034;-87
2023/03/27 10:49:27;;;;;;;0.30;0.30;;;;;;;6.09;55.06;101501.50;5143016;28;20029;-88
2023/03/27 10:52:13;;;;;;;0.30;0.30;;;;;;;6.17;55.87;101497.19;5160266;28;20025;-88
2023/03/27 10:55:14;;;;;;;0.40;0.40;;;;;;;6.16;55.24;101489.38;5172313;28;20071;-87
2023/03/27 10:57:52;;;;;;;0.30;0.30;;;;;;;6.26;57.19;101499.84;5155130;28;20038;-88
2023/03/27 11:00:34;;;;;;;0.30;0.30;;;;;;;6.48;56.09;101507.75;5158602;28;20425;-88
2023/03/27 11:03:16;;;;;;;0.30;0.30;;;;;;;6.50;55.16;101486.88;5177596;28;20030;-88
2023/03/27 11:05:48;;;;;;;3.03;1.33;;;;;;;6.68;54.95;101502.56;5156094;28;20049;-88
2023/03/27 11:08:34;;;;;;;0.30;0.30;;;;;;;6.78;54.48;101495.63;5143196;28;20064;-87
2023/03/27 11:11:14;;;;;;;0.28;0.28;;;;;;;6.88;52.43;101505.19;5176248;28;20411;-87
2023/03/27 11:13:46;;;;;;;0.30;0.30;;;;;;;6.81;51.59;101500.84;5167979;28;20066;-88
2023/03/27 11:16:34;;;;;;;0.30;0.30;;;;;;;6.69;53.48;101529.50;5155196;28;20039;-88
2023/03/27 11:19:10;;;;;;;0.30;0.30;;;;;;;6.49;55.83;101525.09;5171599;28;20026;-85
2023/03/27 11:21:46;;;;;;;0.30;0.30;;;;;;;6.47;57.70;101537.28;5183305;28;20046;-87
2023/03/27 11:24:37;;;;;;;2.95;1.20;;;;;;;6.53;57.44;101526.88;5177301;28;20038;-92
2023/03/27 11:27:17;;;;;;;0.20;0.20;;;;;;;6.72;57.72;101532.13;5150758;28;20027;-89
2023/03/27 11:30:03;;;;;;;0.30;0.30;;;;;;;6.76;56.17;101539.06;5149156;28;20038;-90
2023/03/27 11:32:43;;;;;;;0.30;0.30;;;;;;;6.86;55.33;101540.00;5183950;28;20033;-94
2023/03/27 11:35:21;;;;;;;0.30;0.30;;;;;;;6.97;57.36;101563.47;5163641;28;20095;-90
2023/03/27 11:38:00;;;;;;;0.30;0.30;;;;;;;6.67;61.16;101573.84;5169265;28;20030;-91
2023/03/27 11:40:38;;;;;;;0.38;0.38;;;;;;;6.57;61.52;101580.75;5149534;28;20046;-91
2023/03/27 11:43:11;;;;;;;0.30;0.30;;;;;;;6.42;62.06;101580.69;5179832;28;20041;-89
2023/03/27 11:46:04;;;;;;;0.30;0.30;;;;;;;6.46;62.23;101591.16;5178829;28;20021;-87
2023/03/27 11:49:11;;;;;;;0.30;0.30;;;;;;;5.98;64.27;101603.03;5180365;28;20061;-91
2023/03/27 11:51:57;;;;;;;0.30;0.30;;;;;;;6.04;64.64;101594.44;5186947;28;20045;-92
2023/03/27 11:54:40;;;;;;;0.30;0.30;;;;;;;6.35;63.98;101591.97;5161570;28;20042;-90
2023/03/27 11:57:25;;;;;;;0.30;0.30;;;;;;;6.18;66.57;101605.78;5155269;28;20471;-89
2023/03/27 12:00:17;;;;;;;0.30;0.30;;;;;;;6.44;65.10;101590.28;5184437;28;20049;-91
2023/03/27 12:03:05;;;;;;;0.25;0.25;;;;;;;6.60;64.63;101593.81;5184140;28;20080;-89
2023/03/27 12:05:58;;;;;;;0.28;0.28;;;;;;;6.69;64.88;101590.38;5148217;28;20036;-85
2023/03/27 12:08:55;;;;;;;0.40;0.40;;;;;;;6.66;64.15;101584.25;5164265;28;20556;-87
2023/03/27 12:11:28;;;;;;;0.30;0.30;;;;;;;6.68;63.40;101600.78;5144493;28;20133;-88